createdAt,value
2022-11-17T00:14:35.973Z,857
2022-11-17T00:34:36.012Z,868
2022-11-17T00:54:44.094Z,878
2022-11-17T01:34:44.170Z,890
2022-11-17T01:54:44.232Z,899
2022-11-17T02:14:36.282Z,908
2022-11-17T02:34:36.356Z,911
2022-11-17T02:54:36.374Z,917
2022-11-17T03:14:36.568Z,915
2022-11-17T03:34:36.511Z,912
2022-11-17T04:14:36.594Z,956
2022-11-17T04:34:36.656Z,965
2022-11-17T04:54:36.712Z,965
2022-11-17T05:14:44.777Z,964
2022-11-17T05:34:44.818Z,962
2022-11-17T05:54:45.469Z,961
2022-11-17T06:14:44.920Z,956
2022-11-17T06:34:46.987Z,952
2022-11-17T06:54:37.060Z,958
2022-11-17T07:14:37.118Z,948
2022-11-17T07:34:37.168Z,937
2022-11-17T08:14:37.267Z,959
2022-11-17T08:34:37.340Z,998
2022-11-17T08:54:37.399Z,1011
2022-11-17T09:14:37.451Z,1007
2022-11-17T09:34:37.482Z,1001
2022-11-17T09:54:37.559Z,993
2022-11-17T10:14:45.595Z,985
2022-11-17T10:34:41.268Z,980
2022-11-17T11:14:45.725Z,967
2022-11-17T11:34:37.807Z,963
2022-11-17T11:54:40.291Z,959
2022-11-17T12:14:37.906Z,958
2022-11-17T12:34:37.946Z,957
2022-11-17T12:54:45.990Z,959
2022-11-17T13:14:38.050Z,960
2022-11-17T13:34:46.131Z,963
2022-11-17T13:54:38.148Z,963
2022-11-17T14:14:38.204Z,958
2022-11-17T14:34:38.254Z,951
2022-11-17T14:54:38.294Z,944
2022-11-17T15:14:38.366Z,938
2022-11-17T15:34:38.423Z,929
2022-11-17T15:54:38.442Z,922
2022-11-17T16:14:46.528Z,917
2022-11-17T16:34:38.578Z,916
2022-11-17T16:54:38.669Z,920
2022-11-17T17:14:46.657Z,926
2022-11-17T17:34:46.710Z,928
2022-11-17T17:54:38.791Z,929
2022-11-17T18:14:39.009Z,927
2022-11-17T18:34:38.947Z,923
2022-11-17T18:54:38.926Z,919
2022-11-17T19:14:38.977Z,913
2022-11-17T19:34:39.044Z,911
2022-11-17T19:54:39.094Z,911
2022-11-17T20:14:39.139Z,914
2022-11-17T20:34:39.215Z,914
2022-11-17T21:14:39.344Z,909
2022-11-17T22:14:39.510Z,905
2022-11-17T22:34:39.553Z,905
2022-11-17T22:54:39.600Z,906
2022-11-17T23:54:39.864Z,895
